createdAt,value
2019-06-07T00:02:03.833Z,16.80
2019-06-07T00:04:34.508Z,16.80
2019-06-07T00:07:08.588Z,16.80
2019-06-07T00:09:38.468Z,16.80
2019-06-07T00:12:10.958Z,16.80
2019-06-07T00:14:41.890Z,16.80
2019-06-07T00:17:14.090Z,16.70
2019-06-07T00:19:45.381Z,16.70
2019-06-07T00:22:29.103Z,16.70
2019-06-07T00:24:48.667Z,16.60
2019-06-07T00:27:22.244Z,16.70
2019-06-07T00:29:52.436Z,16.70
2019-06-07T00:32:23.161Z,16.60
2019-06-07T00:34:53.958Z,16.80
2019-06-07T00:37:25.625Z,16.70
2019-06-07T00:40:13.384Z,16.70
2019-06-07T00:42:28.867Z,16.70
2019-06-07T00:44:59.532Z,16.90
2019-06-07T00:47:30.448Z,16.90
2019-06-07T00:50:01.085Z,16.70
2019-06-07T00:55:04.427Z,16.60
2019-06-07T00:57:35.166Z,16.70
2019-06-07T01:00:06.566Z,16.70
2019-06-07T01:02:37.344Z,16.90
2019-06-07T01:05:09.231Z,16.90
2019-06-07T01:07:40.429Z,16.80
2019-06-07T01:10:16.549Z,16.80
2019-06-07T01:12:46.743Z,16.80
2019-06-07T01:15:28.517Z,16.60
2019-06-07T01:20:28.289Z,16.70
2019-06-07T01:22:58.966Z,16.60
2019-06-07T01:25:29.663Z,16.60
2019-06-07T01:28:00.345Z,16.60
2019-06-07T01:30:31.143Z,16.60
2019-06-07T01:33:01.793Z,16.60
2019-06-07T01:35:32.520Z,16.60
2019-06-07T01:38:03.247Z,16.60
2019-06-07T01:40:33.956Z,16.50
2019-06-07T01:43:04.620Z,16.50
2019-06-07T01:45:35.430Z,16.50
2019-06-07T01:48:06.142Z,16.60
2019-06-07T01:50:36.887Z,16.50
2019-06-07T01:53:07.560Z,16.60
2019-06-07T01:55:38.249Z,16.50
2019-06-07T01:58:09.111Z,16.40
2019-06-07T02:00:40.393Z,16.20
2019-06-07T02:03:11.135Z,16.20
2019-06-07T02:05:41.811Z,16.20
2019-06-07T02:08:12.561Z,16.20
2019-06-07T02:10:44.294Z,16.20
2019-06-07T02:13:14.938Z,16.20
2019-06-07T02:15:45.732Z,16.10
2019-06-07T02:18:16.399Z,16.20
2019-06-07T02:20:47.969Z,16.20
2019-06-07T02:23:20.338Z,16.20
2019-06-07T02:25:51.450Z,16.20
2019-06-07T02:28:32.079Z,16.20
2019-06-07T02:30:59.822Z,16.10
2019-06-07T02:33:33.523Z,16.10
2019-06-07T02:35:59.576Z,16.10
2019-06-07T02:38:32.625Z,16.10
2019-06-07T02:41:02.713Z,16.20
2019-06-07T02:43:36.887Z,16.20
2019-06-07T02:46:25.100Z,16.30
2019-06-07T02:48:44.541Z,16.30
2019-06-07T02:51:15.260Z,16.40
2019-06-07T02:53:45.945Z,16.30
2019-06-07T02:58:49.642Z,16.30
2019-06-07T03:01:20.359Z,16.40
2019-06-07T03:03:51.859Z,16.40
2019-06-07T03:06:23.248Z,16.40
2019-06-07T03:08:55.944Z,16.30
2019-06-07T03:11:31.649Z,16.30
2019-06-07T03:14:04.394Z,16.30
2019-06-07T03:16:41.866Z,16.30
2019-06-07T03:19:23.554Z,16.30
2019-06-07T03:21:55.684Z,16.20
2019-06-07T03:24:30.621Z,16.20
2019-06-07T03:29:33.827Z,16.30
2019-06-07T03:32:04.427Z,16.30
2019-06-07T03:34:41.037Z,16.30
2019-06-07T03:37:07.569Z,16.10
2019-06-07T03:39:40.990Z,16.00
2019-06-07T03:42:15.286Z,15.90
2019-06-07T03:44:45.954Z,15.80
2019-06-07T03:47:23.058Z,15.90
2019-06-07T03:49:54.456Z,16.00
2019-06-07T03:52:25.160Z,15.90
2019-06-07T03:54:56.698Z,15.90
2019-06-07T03:57:28.746Z,16.00
2019-06-07T03:59:59.784Z,16.00
2019-06-07T04:02:33.050Z,16.00
2019-06-07T04:05:02.895Z,16.10
2019-06-07T04:07:36.075Z,16.00
2019-06-07T04:10:06.741Z,16.10
2019-06-07T04:12:39.982Z,16.10
2019-06-07T04:15:10.197Z,16.30
2019-06-07T04:18:00.371Z,16.30
2019-06-07T04:20:14.132Z,16.30
2019-06-07T04:22:45.596Z,16.30
2019-06-07T04:25:16.355Z,16.40
2019-06-07T04:27:47.044Z,16.40
2019-06-07T04:30:39.528Z,16.40
2019-06-07T04:33:11.301Z,16.40
2019-06-07T04:35:45.287Z,16.50
2019-06-07T04:38:16.834Z,16.50
2019-06-07T04:40:48.886Z,16.50
2019-06-07T04:43:21.253Z,16.70
2019-06-07T04:45:52.541Z,16.90
2019-06-07T04:48:25.063Z,17.00
2019-06-07T04:50:59.502Z,17.00
2019-06-07T04:53:34.428Z,17.00
2019-06-07T04:56:02.674Z,17.10
2019-06-07T04:58:35.785Z,17.20
2019-06-07T05:01:24.428Z,17.00
2019-06-07T05:03:44.072Z,17.10
2019-06-07T05:06:13.068Z,17.10
2019-06-07T05:08:52.795Z,17.10
2019-06-07T05:11:23.780Z,17.10
2019-06-07T05:13:54.814Z,17.50
2019-06-07T05:16:25.553Z,17.90
2019-06-07T05:18:56.574Z,18.00
2019-06-07T05:21:46.487Z,18.40
2019-06-07T05:24:07.649Z,18.60
2019-06-07T05:26:33.054Z,18.70
2019-06-07T05:29:04.877Z,18.60
2019-06-07T05:31:39.032Z,18.40
2019-06-07T05:34:08.239Z,18.50
2019-06-07T05:36:42.482Z,18.70
2019-06-07T05:39:11.796Z,18.90
2019-06-07T05:41:44.312Z,18.90
2019-06-07T05:44:15.374Z,18.80
2019-06-07T05:46:47.429Z,18.80
2019-06-07T05:49:18.390Z,18.90
2019-06-07T05:51:51.387Z,19.10
2019-06-07T05:54:22.613Z,19.10
2019-06-07T05:56:53.425Z,19.10
2019-06-07T05:59:24.131Z,19.30
2019-06-07T06:02:02.830Z,19.50
2019-06-07T06:04:27.258Z,19.60
2019-06-07T06:06:58.245Z,19.40
2019-06-07T06:09:28.928Z,19.30
2019-06-07T06:12:02.485Z,19.40
2019-06-07T06:14:32.346Z,19.30
2019-06-07T06:17:05.413Z,19.30
2019-06-07T06:19:40.715Z,19.40
2019-06-07T06:22:10.181Z,19.30
2019-06-07T06:25:01.456Z,19.20
2019-06-07T06:27:41.743Z,19.20
2019-06-07T06:29:50.442Z,19.10
2019-06-07T06:34:53.926Z,18.90
2019-06-07T06:37:24.803Z,18.80
2019-06-07T06:39:55.670Z,18.90
2019-06-07T06:42:26.346Z,19.10
2019-06-07T06:44:57.069Z,19.20
2019-06-07T06:47:27.837Z,19.20
2019-06-07T06:49:58.466Z,19.20
2019-06-07T06:52:29.159Z,19.20
2019-06-07T06:55:01.099Z,19.40
2019-06-07T06:57:31.987Z,19.50
2019-06-07T07:00:03.199Z,19.70
2019-06-07T07:02:33.865Z,20.00
2019-06-07T07:05:07.096Z,20.00
2019-06-07T07:07:38.132Z,20.00
2019-06-07T07:10:09.673Z,20.20
2019-06-07T07:12:42.710Z,20.30
2019-06-07T07:15:19.927Z,20.00
2019-06-07T07:18:03.669Z,20.10
2019-06-07T07:20:24.876Z,20.40
2019-06-07T07:22:57.199Z,20.70
2019-06-07T07:25:28.081Z,21.40
2019-06-07T07:27:58.784Z,22.10
2019-06-07T07:30:45.011Z,21.80
2019-06-07T07:33:15.948Z,21.30
2019-06-07T07:36:13.323Z,20.90
2019-06-07T07:38:19.693Z,20.30
2019-06-07T07:41:13.382Z,19.80
2019-06-07T07:43:23.272Z,19.80
2019-06-07T07:46:02.149Z,19.90
2019-06-07T07:48:28.766Z,19.80
2019-06-07T07:51:01.251Z,20.10
2019-06-07T07:53:47.890Z,20.30
2019-06-07T07:56:05.371Z,20.20
2019-06-07T07:58:36.375Z,20.80
2019-06-07T08:01:10.547Z,21.00
2019-06-07T08:03:40.896Z,21.20
2019-06-07T08:06:11.496Z,21.60
2019-06-07T08:08:42.561Z,20.90
2019-06-07T08:11:13.243Z,19.90
2019-06-07T08:13:45.819Z,19.50
2019-06-07T08:16:18.832Z,19.80
2019-06-07T08:19:04.089Z,20.30
2019-06-07T08:21:34.532Z,20.00
2019-06-07T08:24:05.790Z,20.10
2019-06-07T08:26:36.740Z,20.50
2019-06-07T08:29:08.669Z,20.80
2019-06-07T08:31:39.492Z,21.40
2019-06-07T08:34:11.040Z,21.80
2019-06-07T08:36:42.856Z,22.10
2019-06-07T08:39:13.583Z,22.10
2019-06-07T08:41:53.946Z,22.20
2019-06-07T08:44:23.811Z,22.20
2019-06-07T08:46:56.589Z,22.50
2019-06-07T08:49:22.526Z,22.90
2019-06-07T08:52:02.584Z,23.10
2019-06-07T08:54:25.784Z,23.40
2019-06-07T08:57:17.076Z,23.30
2019-06-07T08:59:30.032Z,23.20
2019-06-07T09:02:04.241Z,23.00
2019-06-07T09:04:33.158Z,23.00
2019-06-07T09:07:14.744Z,23.10
2019-06-07T09:09:37.226Z,22.90
2019-06-07T09:12:11.427Z,23.10
2019-06-07T09:14:58.620Z,23.50
2019-06-07T09:17:13.538Z,23.50
2019-06-07T09:19:44.776Z,23.30
2019-06-07T09:22:15.484Z,23.50
2019-06-07T09:24:46.555Z,23.00
2019-06-07T09:27:17.550Z,22.30
2019-06-07T09:29:48.736Z,22.60
2019-06-07T09:32:19.505Z,22.90
2019-06-07T09:34:50.305Z,22.70
2019-06-07T09:38:03.652Z,22.10
2019-06-07T09:39:53.486Z,22.00
2019-06-07T09:42:24.152Z,22.60
2019-06-07T09:44:56.938Z,23.10
2019-06-07T09:47:32.562Z,23.60
2019-06-07T09:50:08.387Z,23.30
2019-06-07T09:52:55.105Z,23.30
2019-06-07T09:55:19.642Z,23.40
2019-06-07T09:57:38.116Z,23.90
2019-06-07T10:00:39.179Z,24.20
2019-06-07T10:02:48.248Z,23.70
2019-06-07T10:05:19.040Z,23.60
2019-06-07T10:08:00.478Z,23.00
2019-06-07T10:12:55.176Z,23.60
2019-06-07T10:15:25.892Z,23.80
2019-06-07T10:17:56.552Z,24.20
2019-06-07T10:20:27.255Z,24.30
2019-06-07T10:22:59.421Z,24.20
2019-06-07T10:25:30.558Z,23.60
2019-06-07T10:28:01.836Z,23.20
2019-06-07T10:30:34.282Z,22.80
2019-06-07T10:33:07.124Z,23.10
2019-06-07T10:35:39.102Z,23.10
2019-06-07T10:38:10.720Z,23.60
2019-06-07T10:40:41.538Z,23.90
2019-06-07T10:43:14.381Z,23.70
2019-06-07T10:45:45.809Z,23.70
2019-06-07T10:48:16.863Z,24.00
2019-06-07T10:50:47.653Z,24.20
2019-06-07T10:53:18.531Z,24.80
2019-06-07T10:55:49.599Z,25.00
2019-06-07T10:58:20.422Z,25.20
2019-06-07T11:00:51.288Z,25.30
2019-06-07T11:03:22.402Z,25.60
2019-06-07T11:05:53.137Z,25.90
2019-06-07T11:08:23.813Z,26.20
2019-06-07T11:10:54.528Z,26.40
2019-06-07T11:13:25.179Z,26.40
2019-06-07T11:15:55.858Z,26.10
2019-06-07T11:18:26.482Z,25.60
2019-06-07T11:20:57.164Z,25.80
2019-06-07T11:23:27.806Z,26.00
2019-06-07T11:25:58.458Z,25.40
2019-06-07T11:28:29.118Z,25.60
2019-06-07T11:30:59.807Z,26.10
2019-06-07T11:33:30.491Z,26.20
2019-06-07T11:36:01.188Z,26.40
2019-06-07T11:38:31.904Z,26.60
2019-06-07T11:41:02.603Z,26.90
2019-06-07T11:43:33.278Z,27.20
2019-06-07T11:46:04.076Z,27.40
2019-06-07T11:48:34.718Z,27.40
2019-06-07T11:51:06.678Z,27.10
2019-06-07T11:53:37.767Z,27.00
2019-06-07T11:56:10.216Z,27.10
2019-06-07T11:58:41.019Z,27.10
2019-06-07T12:01:11.927Z,26.30
2019-06-07T12:03:44.460Z,26.50
2019-06-07T12:06:16.443Z,26.40
2019-06-07T12:08:48.315Z,26.30
2019-06-07T12:11:19.291Z,26.50
2019-06-07T12:13:50.177Z,26.70
2019-06-07T12:16:21.283Z,26.90
2019-06-07T12:18:51.999Z,27.00
2019-06-07T12:21:22.788Z,26.80
2019-06-07T12:23:53.554Z,27.00
2019-06-07T12:26:24.360Z,27.30
2019-06-07T12:28:55.032Z,27.40
2019-06-07T12:31:25.691Z,27.70
2019-06-07T12:33:56.341Z,27.90
2019-06-07T12:36:27.031Z,28.00
2019-06-07T12:38:57.666Z,27.90
2019-06-07T12:41:28.399Z,27.80
2019-06-07T12:43:59.325Z,27.70
2019-06-07T12:46:30.049Z,27.80
2019-06-07T12:49:00.735Z,27.90
2019-06-07T12:51:31.776Z,27.90
2019-06-07T12:54:02.426Z,28.00
2019-06-07T12:56:33.139Z,28.70
2019-06-07T12:59:03.824Z,28.90
2019-06-07T13:01:35.529Z,29.30
2019-06-07T13:04:06.310Z,29.70
2019-06-07T13:06:37.223Z,30.50
2019-06-07T13:09:09.143Z,30.50
2019-06-07T13:11:39.847Z,30.30
2019-06-07T13:14:10.571Z,30.50
2019-06-07T13:16:41.252Z,30.30
2019-06-07T13:19:11.930Z,30.40
2019-06-07T13:21:43.069Z,30.50
2019-06-07T13:24:13.847Z,30.50
2019-06-07T13:26:44.535Z,31.20
2019-06-07T13:29:16.390Z,30.70
2019-06-07T13:31:47.971Z,30.60
2019-06-07T13:34:20.399Z,30.90
2019-06-07T13:36:51.185Z,31.10
2019-06-07T13:39:24.588Z,31.00
2019-06-07T13:41:54.945Z,31.30
2019-06-07T13:44:26.279Z,31.50
2019-06-07T13:46:57.065Z,31.80
2019-06-07T13:49:27.978Z,32.10
2019-06-07T13:51:58.758Z,31.60
2019-06-07T13:54:29.816Z,31.30
2019-06-07T13:57:02.597Z,31.70
2019-06-07T13:59:33.028Z,31.90
2019-06-07T14:02:03.917Z,31.90
2019-06-07T14:04:35.914Z,32.10
2019-06-07T14:07:07.329Z,32.10
2019-06-07T14:09:38.955Z,32.40
2019-06-07T14:12:09.692Z,31.70
2019-06-07T14:14:40.401Z,31.60
2019-06-07T14:17:11.080Z,31.90
2019-06-07T14:19:41.821Z,32.10
2019-06-07T14:22:12.520Z,32.00
2019-06-07T14:24:43.801Z,31.80
2019-06-07T14:27:14.502Z,32.00
2019-06-07T14:29:45.146Z,32.00
2019-06-07T14:32:15.869Z,31.80
2019-06-07T14:34:47.055Z,31.80
2019-06-07T14:37:17.692Z,31.50
2019-06-07T14:39:48.425Z,31.10
2019-06-07T14:42:19.054Z,31.10
2019-06-07T14:44:49.766Z,31.10
2019-06-07T14:47:20.411Z,31.30
2019-06-07T14:49:51.475Z,31.60
2019-06-07T14:52:22.086Z,31.60
2019-06-07T14:54:52.801Z,31.00
2019-06-07T14:57:25.015Z,30.60
2019-06-07T14:59:55.900Z,31.30
2019-06-07T15:02:28.295Z,31.20
2019-06-07T15:05:00.313Z,30.70
2019-06-07T15:07:32.829Z,30.40
2019-06-07T15:10:03.940Z,30.30
2019-06-07T15:12:35.363Z,30.20
2019-06-07T15:15:07.043Z,30.50
2019-06-07T15:17:39.201Z,30.40
2019-06-07T15:20:10.867Z,29.90
2019-06-07T15:22:41.565Z,29.20
2019-06-07T15:25:12.917Z,29.00
2019-06-07T15:27:44.111Z,28.60
2019-06-07T15:30:16.744Z,28.70
2019-06-07T15:32:47.464Z,28.60
2019-06-07T15:35:18.586Z,28.40
2019-06-07T15:37:49.553Z,28.40
2019-06-07T15:40:21.606Z,28.20
2019-06-07T15:42:53.338Z,28.00
2019-06-07T15:45:24.647Z,27.90
2019-06-07T15:47:55.356Z,27.90
2019-06-07T15:50:28.746Z,28.00
2019-06-07T15:52:58.373Z,27.70
2019-06-07T15:55:31.845Z,27.70
2019-06-07T15:58:02.086Z,27.70
2019-06-07T16:00:33.376Z,27.60
2019-06-07T16:03:04.066Z,27.50
2019-06-07T16:05:36.303Z,27.40
2019-06-07T16:08:07.232Z,27.40
2019-06-07T16:10:38.837Z,27.30
2019-06-07T16:13:09.596Z,27.40
2019-06-07T16:15:43.074Z,27.20
2019-06-07T16:18:13.784Z,27.00
2019-06-07T16:20:44.444Z,26.80
2019-06-07T16:23:15.120Z,26.70
2019-06-07T16:25:46.149Z,26.60
2019-06-07T16:28:16.866Z,26.60
2019-06-07T16:30:47.542Z,26.50
2019-06-07T16:33:18.202Z,26.50
2019-06-07T16:35:48.870Z,26.20
2019-06-07T16:38:19.681Z,26.10
2019-06-07T16:40:50.688Z,26.10
2019-06-07T16:43:21.357Z,26.10
2019-06-07T16:45:52.052Z,26.00
2019-06-07T16:48:22.706Z,26.00
2019-06-07T16:50:53.378Z,25.90
2019-06-07T16:53:24.063Z,25.70
2019-06-07T16:55:54.712Z,25.70
2019-06-07T16:58:25.484Z,25.60
2019-06-07T17:00:56.461Z,25.60
2019-06-07T17:03:27.451Z,25.40
2019-06-07T17:05:58.123Z,25.30
2019-06-07T17:08:28.793Z,25.40
2019-06-07T17:10:59.511Z,25.20
2019-06-07T17:13:33.698Z,25.10
2019-06-07T17:16:02.586Z,25.00
2019-06-07T17:18:36.983Z,25.00
2019-06-07T17:21:06.233Z,24.80
2019-06-07T17:23:37.327Z,24.80
2019-06-07T17:26:08.075Z,24.70
2019-06-07T17:28:39.659Z,24.70
2019-06-07T17:31:10.499Z,24.70
2019-06-07T17:33:42.497Z,24.60
2019-06-07T17:36:13.209Z,24.50
2019-06-07T17:38:44.516Z,24.40
2019-06-07T17:41:15.203Z,24.50
2019-06-07T17:43:55.947Z,24.40
2019-06-07T17:46:19.042Z,24.40
2019-06-07T17:48:49.838Z,24.20
2019-06-07T17:51:20.494Z,24.20
2019-06-07T17:53:52.042Z,24.20
2019-06-07T17:56:22.831Z,24.10
2019-06-07T17:58:53.625Z,24.00
2019-06-07T18:01:24.268Z,23.90
2019-06-07T18:03:54.977Z,23.90
2019-06-07T18:06:26.468Z,23.90
2019-06-07T18:08:59.077Z,23.80
2019-06-07T18:11:29.760Z,23.70
2019-06-07T18:14:10.231Z,23.70
2019-06-07T18:16:32.818Z,23.60
2019-06-07T18:19:03.575Z,23.50
2019-06-07T18:21:34.836Z,23.50
2019-06-07T18:24:05.612Z,23.40
2019-06-07T18:26:36.424Z,23.40
2019-06-07T18:29:07.152Z,23.40
2019-06-07T18:31:38.193Z,23.30
2019-06-07T18:34:08.883Z,23.20
2019-06-07T18:36:40.177Z,23.20
2019-06-07T18:39:10.849Z,23.10
2019-06-07T18:41:42.499Z,23.10
2019-06-07T18:44:21.525Z,23.00
2019-06-07T18:46:46.143Z,23.00
2019-06-07T18:49:16.889Z,22.90
2019-06-07T18:52:10.103Z,22.90
2019-06-07T18:54:44.304Z,22.90
2019-06-07T18:57:15.025Z,22.80
2019-06-07T18:59:45.690Z,22.70
2019-06-07T19:02:16.334Z,22.70
2019-06-07T19:04:47.969Z,22.60
2019-06-07T19:07:18.747Z,22.60
2019-06-07T19:09:50.487Z,22.50
2019-06-07T19:12:21.320Z,22.50
2019-06-07T19:14:53.075Z,22.50
2019-06-07T19:17:24.139Z,22.40
2019-06-07T19:19:55.965Z,22.40
2019-06-07T19:22:26.987Z,22.30
2019-06-07T19:24:58.439Z,22.20
2019-06-07T19:27:32.633Z,22.10
2019-06-07T19:30:01.740Z,22.10
2019-06-07T19:32:32.435Z,22.10
2019-06-07T19:35:03.098Z,22.00
2019-06-07T19:37:33.791Z,22.00
2019-06-07T19:40:05.131Z,22.00
2019-06-07T19:42:35.829Z,22.00
2019-06-07T19:45:29.033Z,21.90
2019-06-07T19:47:40.757Z,21.80
2019-06-07T19:50:11.942Z,21.80
2019-06-07T19:52:43.029Z,21.70
2019-06-07T19:55:14.352Z,21.60
2019-06-07T19:57:46.137Z,21.60
2019-06-07T20:00:17.112Z,21.60
2019-06-07T20:02:47.888Z,21.60
2019-06-07T20:05:19.963Z,21.50
2019-06-07T20:07:51.149Z,21.50
2019-06-07T20:10:21.843Z,21.40
2019-06-07T20:12:52.633Z,21.30
2019-06-07T20:15:28.948Z,21.20
2019-06-07T20:17:57.007Z,21.10
2019-06-07T20:20:29.992Z,21.10
2019-06-07T20:23:00.973Z,21.10
2019-06-07T20:25:31.987Z,21.00
2019-06-07T20:28:03.364Z,21.00
2019-06-07T20:30:34.353Z,20.90
2019-06-07T20:33:06.153Z,20.90
2019-06-07T20:35:37.090Z,20.90
2019-06-07T20:38:07.805Z,20.80
2019-06-07T20:40:38.518Z,20.80
2019-06-07T20:43:09.210Z,20.70
2019-06-07T20:45:40.966Z,20.70
2019-06-07T20:48:11.700Z,20.60
2019-06-07T20:50:42.385Z,20.50
2019-06-07T20:53:13.039Z,20.50
2019-06-07T20:55:43.826Z,20.40
2019-06-07T20:58:14.599Z,20.40
2019-06-07T21:00:45.332Z,20.40
2019-06-07T21:03:16.052Z,20.30
2019-06-07T21:05:47.434Z,20.20
2019-06-07T21:08:18.302Z,20.10
2019-06-07T21:10:49.933Z,20.10
2019-06-07T21:13:20.618Z,20.10
2019-06-07T21:15:51.945Z,20.10
2019-06-07T21:18:22.615Z,20.10
2019-06-07T21:20:53.595Z,20.00
2019-06-07T21:23:24.268Z,20.00
2019-06-07T21:25:55.700Z,20.00
2019-06-07T21:28:26.329Z,20.00
2019-06-07T21:30:57.073Z,19.90
2019-06-07T21:33:27.680Z,19.90
2019-06-07T21:35:58.379Z,20.00
2019-06-07T21:38:29.028Z,19.90
2019-06-07T21:41:02.049Z,19.90
2019-06-07T21:43:32.942Z,19.90
2019-06-07T21:46:07.051Z,19.80
2019-06-07T21:48:36.091Z,19.80
2019-06-07T21:51:06.793Z,19.80
2019-06-07T21:53:37.569Z,19.70
2019-06-07T21:56:09.017Z,19.70
2019-06-07T21:58:40.421Z,19.70
2019-06-07T22:01:20.592Z,19.70
2019-06-07T22:03:51.390Z,19.60
2019-06-07T22:06:22.057Z,19.60
2019-06-07T22:08:53.438Z,19.60
2019-06-07T22:11:24.174Z,19.60
2019-06-07T22:13:55.765Z,19.60
2019-06-07T22:16:29.379Z,19.60
2019-06-07T22:18:58.832Z,19.50
2019-06-07T22:21:29.648Z,19.50
2019-06-07T22:24:00.379Z,19.50
2019-06-07T22:26:31.062Z,19.50
2019-06-07T22:29:02.627Z,19.40
2019-06-07T22:31:33.293Z,19.40
2019-06-07T22:34:04.074Z,19.30
2019-06-07T22:36:34.761Z,19.30
2019-06-07T22:39:07.503Z,19.30
2019-06-07T22:41:39.344Z,19.30
2019-06-07T22:44:10.750Z,19.20
2019-06-07T22:46:41.672Z,19.20
2019-06-07T22:49:13.347Z,19.20
2019-06-07T22:51:44.283Z,19.20
2019-06-07T22:54:16.082Z,19.10
2019-06-07T22:56:57.964Z,19.00
2019-06-07T22:59:28.700Z,19.00
2019-06-07T23:01:59.676Z,18.90
2019-06-07T23:04:30.406Z,18.90
2019-06-07T23:07:01.458Z,19.00
2019-06-07T23:09:32.130Z,18.90
2019-06-07T23:12:02.798Z,18.90
2019-06-07T23:14:33.511Z,18.80
2019-06-07T23:17:04.158Z,18.90
2019-06-07T23:19:34.862Z,18.90
2019-06-07T23:22:05.528Z,18.90
2019-06-07T23:24:36.227Z,18.80
2019-06-07T23:27:06.985Z,18.80
2019-06-07T23:29:37.632Z,18.80
2019-06-07T23:32:08.332Z,18.80
2019-06-07T23:34:38.988Z,18.70
2019-06-07T23:37:10.867Z,18.70
2019-06-07T23:39:42.686Z,18.60
2019-06-07T23:42:13.428Z,18.60
2019-06-07T23:44:44.056Z,18.50
2019-06-07T23:47:17.000Z,18.50
2019-06-07T23:49:47.990Z,18.50
2019-06-07T23:52:19.747Z,18.40
2019-06-07T23:54:50.629Z,18.40
2019-06-07T23:57:22.625Z,18.50
2019-06-07T23:59:53.368Z,18.40
